sensor_id;sensor_type;location;lat;lon;timestamp;pressure;altitude;pressure_sealevel;temperature;humidity
5380;BME280;2713;42.680;23.310;2023-02-01T00:02:10;95187.28;;;3.81;68.73
5380;BME280;2713;42.680;23.310;2023-02-01T00:04:36;95183.50;;;3.76;68.11
5380;BME280;2713;42.680;23.310;2023-02-01T00:07:03;95185.00;;;3.69;68.39
5380;BME280;2713;42.680;23.310;2023-02-01T00:09:30;95186.09;;;3.66;68.97
5380;BME280;2713;42.680;23.310;2023-02-01T00:11:57;95183.75;;;3.63;68.12
5380;BME280;2713;42.680;23.310;2023-02-01T00:14:28;95182.69;;;3.66;68.12
5380;BME280;2713;42.680;23.310;2023-02-01T00:16:55;95189.88;;;3.72;68.65
5380;BME280;2713;42.680;23.310;2023-02-01T00:19:22;95187.28;;;3.72;67.98
5380;BME280;2713;42.680;23.310;2023-02-01T00:21:49;95194.19;;;3.52;68.61
5380;BME280;2713;42.680;23.310;2023-02-01T00:24:16;95189.44;;;3.57;67.74
5380;BME280;2713;42.680;23.310;2023-02-01T00:26:44;95179.03;;;3.58;67.73
5380;BME280;2713;42.680;23.310;2023-02-01T00:29:12;95182.81;;;3.35;68.36
5380;BME280;2713;42.680;23.310;2023-02-01T00:31:42;95179.31;;;3.55;68.48
5380;BME280;2713;42.680;23.310;2023-02-01T00:34:09;95180.41;;;3.63;67.89
5380;BME280;2713;42.680;23.310;2023-02-01T00:36:38;95172.81;;;3.51;67.90
5380;BME280;2713;42.680;23.310;2023-02-01T00:39:06;95180.09;;;3.46;67.37
5380;BME280;2713;42.680;23.310;2023-02-01T00:41:33;95176.84;;;3.35;67.58
5380;BME280;2713;42.680;23.310;2023-02-01T00:43:59;95180.38;;;3.43;67.14
5380;BME280;2713;42.680;23.310;2023-02-01T00:46:27;95169.78;;;3.27;66.08
5380;BME280;2713;42.680;23.310;2023-02-01T00:48:55;95178.34;;;3.37;65.52
5380;BME280;2713;42.680;23.310;2023-02-01T00:51:25;95172.53;;;3.35;65.92
5380;BME280;2713;42.680;23.310;2023-02-01T00:53:52;95176.97;;;3.33;65.19
5380;BME280;2713;42.680;23.310;2023-02-01T00:56:20;95172.91;;;3.21;65.98
5380;BME280;2713;42.680;23.310;2023-02-01T00:58:47;95173.03;;;3.29;65.65
5380;BME280;2713;42.680;23.310;2023-02-01T01:01:16;95167.06;;;3.19;65.98
5380;BME280;2713;42.680;23.310;2023-02-01T01:03:45;95172.91;;;3.21;65.45
5380;BME280;2713;42.680;23.310;2023-02-01T01:06:16;95168.44;;;3.23;66.01
5380;BME280;2713;42.680;23.310;2023-02-01T01:08:43;95167.88;;;3.20;65.65
5380;BME280;2713;42.680;23.310;2023-02-01T01:11:12;95164.22;;;3.22;64.94
5380;BME280;2713;42.680;23.310;2023-02-01T01:13:40;95175.19;;;3.15;65.29
5380;BME280;2713;42.680;23.310;2023-02-01T01:16:08;95169.78;;;3.27;64.94
5380;BME280;2713;42.680;23.310;2023-02-01T01:18:36;95163.34;;;3.42;64.42
5380;BME280;2713;42.680;23.310;2023-02-01T01:21:04;95160.91;;;3.60;64.46
5380;BME280;2713;42.680;23.310;2023-02-01T01:23:32;95159.69;;;3.54;63.83
5380;BME280;2713;42.680;23.310;2023-02-01T01:25:59;95167.13;;;3.38;63.53
5380;BME280;2713;42.680;23.310;2023-02-01T01:28:26;95161.81;;;3.30;64.30
5380;BME280;2713;42.680;23.310;2023-02-01T01:30:53;95164.94;;;3.43;63.33
5380;BME280;2713;42.680;23.310;2023-02-01T01:33:19;95160.34;;;3.47;62.71
5380;BME280;2713;42.680;23.310;2023-02-01T01:35:46;95160.91;;;3.50;61.79
5380;BME280;2713;42.680;23.310;2023-02-01T01:38:13;95179.25;;;3.17;62.42
5380;BME280;2713;42.680;23.310;2023-02-01T01:40:44;95176.41;;;3.30;61.55
5380;BME280;2713;42.680;23.310;2023-02-01T01:43:13;95169.25;;;3.33;61.50
5380;BME280;2713;42.680;23.310;2023-02-01T01:45:41;95184.00;;;3.31;61.46
5380;BME280;2713;42.680;23.310;2023-02-01T01:48:12;95178.16;;;3.29;61.35
5380;BME280;2713;42.680;23.310;2023-02-01T01:50:44;95181.00;;;3.26;61.83
5380;BME280;2713;42.680;23.310;2023-02-01T01:53:17;95182.53;;;3.48;62.13
5380;BME280;2713;42.680;23.310;2023-02-01T01:55:47;95178.72;;;3.33;61.55
5380;BME280;2713;42.680;23.310;2023-02-01T01:58:18;95178.34;;;3.37;61.75
5380;BME280;2713;42.680;23.310;2023-02-01T02:00:48;95178.44;;;3.36;61.22
5380;BME280;2713;42.680;23.310;2023-02-01T02:03:18;95174.63;;;3.11;62.27
5380;BME280;2713;42.680;23.310;2023-02-01T02:05:48;95178.50;;;3.05;61.60
5380;BME280;2713;42.680;23.310;2023-02-01T02:08:17;95168.78;;;2.99;62.43
5380;BME280;2713;42.680;23.310;2023-02-01T02:10:48;95174.69;;;2.81;63.19
5380;BME280;2713;42.680;23.310;2023-02-01T02:13:27;95172.41;;;2.87;63.65
5380;BME280;2713;42.680;23.310;2023-02-01T02:16:05;95169.53;;;2.81;63.70
5380;BME280;2713;42.680;23.310;2023-02-01T02:18:44;95165.91;;;2.93;62.56
5380;BME280;2713;42.680;23.310;2023-02-01T02:21:23;95158.75;;;2.87;62.10
5380;BME280;2713;42.680;23.310;2023-02-01T02:24:22;95160.13;;;2.91;62.63
5380;BME280;2713;42.680;23.310;2023-02-01T02:27:21;95163.44;;;2.82;62.48
5380;BME280;2713;42.680;23.310;2023-02-01T02:33:30;95171.28;;;2.80;62.50
5380;BME280;2713;42.680;23.310;2023-02-01T02:36:03;95175.69;;;2.69;62.20
5380;BME280;2713;42.680;23.310;2023-02-01T02:38:38;95161.06;;;2.60;62.96
5380;BME280;2713;42.680;23.310;2023-02-01T02:41:13;95173.72;;;2.51;63.28
5380;BME280;2713;42.680;23.310;2023-02-01T02:44:09;95169.69;;;2.59;63.73
5380;BME280;2713;42.680;23.310;2023-02-01T02:47:01;95159.19;;;2.62;63.84
5380;BME280;2713;42.680;23.310;2023-02-01T02:49:53;95167.88;;;2.70;63.50
5380;BME280;2713;42.680;23.310;2023-02-01T02:52:36;95162.34;;;2.75;63.69
5380;BME280;2713;42.680;23.310;2023-02-01T02:55:24;95159.09;;;2.73;64.43
5380;BME280;2713;42.680;23.310;2023-02-01T02:57:54;95172.47;;;2.76;63.94
5380;BME280;2713;42.680;23.310;2023-02-01T03:00:40;95161.78;;;2.71;63.94
5380;BME280;2713;42.680;23.310;2023-02-01T03:03:25;95171.06;;;2.93;63.10
5380;BME280;2713;42.680;23.310;2023-02-01T03:06:14;95165.25;;;2.91;62.66
5380;BME280;2713;42.680;23.310;2023-02-01T03:08:42;95177.72;;;2.75;62.20
5380;BME280;2713;42.680;23.310;2023-02-01T03:11:13;95175.44;;;2.72;61.94
5380;BME280;2713;42.680;23.310;2023-02-01T03:13:44;95187.63;;;2.79;62.81
5380;BME280;2713;42.680;23.310;2023-02-01T03:16:15;95199.53;;;2.80;62.77
5380;BME280;2713;42.680;23.310;2023-02-01T03:18:52;95191.81;;;2.80;62.10
5380;BME280;2713;42.680;23.310;2023-02-01T03:21:25;95189.56;;;2.87;61.51
5380;BME280;2713;42.680;23.310;2023-02-01T03:23:53;95195.63;;;2.86;61.98
5380;BME280;2713;42.680;23.310;2023-02-01T03:26:22;95198.66;;;2.70;62.23
5380;BME280;2713;42.680;23.310;2023-02-01T03:28:57;95191.72;;;2.61;62.30
5380;BME280;2713;42.680;23.310;2023-02-01T03:31:28;95199.03;;;2.66;62.06
5380;BME280;2713;42.680;23.310;2023-02-01T03:33:55;95195.81;;;2.64;62.26
5380;BME280;2713;42.680;23.310;2023-02-01T03:36:28;95198.78;;;2.69;62.12
5380;BME280;2713;42.680;23.310;2023-02-01T03:39:02;95192.28;;;2.65;61.75
5380;BME280;2713;42.680;23.310;2023-02-01T03:41:35;95189.59;;;2.66;62.43
5380;BME280;2713;42.680;23.310;2023-02-01T03:44:12;95195.44;;;2.78;61.77
5380;BME280;2713;42.680;23.310;2023-02-01T03:46:45;95188.78;;;3.05;61.54
5380;BME280;2713;42.680;23.310;2023-02-01T03:49:19;95191.22;;;2.97;61.16
5380;BME280;2713;42.680;23.310;2023-02-01T03:51:50;95200.66;;;2.97;62.32
5380;BME280;2713;42.680;23.310;2023-02-01T03:54:18;95197.13;;;2.98;61.14
5380;BME280;2713;42.680;23.310;2023-02-01T03:56:47;95199.38;;;2.82;62.35
5380;BME280;2713;42.680;23.310;2023-02-01T03:59:15;95196.47;;;2.96;61.22
5380;BME280;2713;42.680;23.310;2023-02-01T04:01:42;95194.81;;;2.95;61.63
5380;BME280;2713;42.680;23.310;2023-02-01T04:04:09;95202.31;;;3.08;60.65
5380;BME280;2713;42.680;23.310;2023-02-01T04:06:37;95200.03;;;3.14;60.61
5380;BME280;2713;42.680;23.310;2023-02-01T04:09:05;95199.22;;;3.04;60.90
5380;BME280;2713;42.680;23.310;2023-02-01T04:11:32;95192.53;;;2.92;62.13
5380;BME280;2713;42.680;23.310;2023-02-01T04:13:59;95196.22;;;3.08;61.70
5380;BME280;2713;42.680;23.310;2023-02-01T04:16:30;95192.13;;;2.87;63.39
5380;BME280;2713;42.680;23.310;2023-02-01T04:18:57;95201.03;;;2.92;62.90
5380;BME280;2713;42.680;23.310;2023-02-01T04:21:25;95193.91;;;2.96;62.77
5380;BME280;2713;42.680;23.310;2023-02-01T04:23:52;95201.06;;;3.02;63.26
5380;BME280;2713;42.680;23.310;2023-02-01T04:26:21;95195.56;;;3.16;61.93
5380;BME280;2713;42.680;23.310;2023-02-01T04:28:48;95200.88;;;3.15;62.60
5380;BME280;2713;42.680;23.310;2023-02-01T04:31:15;95199.03;;;2.96;63.12
5380;BME280;2713;42.680;23.310;2023-02-01T04:33:41;95202.72;;;3.03;62.80
5380;BME280;2713;42.680;23.310;2023-02-01T04:36:08;95200.94;;;2.94;63.94
5380;BME280;2713;42.680;23.310;2023-02-01T04:38:35;95197.63;;;2.82;65.27
5380;BME280;2713;42.680;23.310;2023-02-01T04:41:02;95194.41;;;2.90;64.33
5380;BME280;2713;42.680;23.310;2023-02-01T04:43:30;95199.28;;;2.93;64.72
5380;BME280;2713;42.680;23.310;2023-02-01T04:45:57;95206.06;;;2.94;65.12
5380;BME280;2713;42.680;23.310;2023-02-01T04:48:24;95204.91;;;3.08;64.40
5380;BME280;2713;42.680;23.310;2023-02-01T04:50:51;95203.94;;;3.08;64.54
5380;BME280;2713;42.680;23.310;2023-02-01T04:53:18;95209.88;;;3.09;64.62
5380;BME280;2713;42.680;23.310;2023-02-01T04:55:45;95204.66;;;3.20;64.66
5380;BME280;2713;42.680;23.310;2023-02-01T04:58:14;95207.06;;;3.12;65.18
5380;BME280;2713;42.680;23.310;2023-02-01T05:00:42;95211.34;;;3.02;64.63
5380;BME280;2713;42.680;23.310;2023-02-01T05:03:09;95221.63;;;3.02;65.85
5380;BME280;2713;42.680;23.310;2023-02-01T05:05:36;95213.16;;;3.11;65.30
5380;BME280;2713;42.680;23.310;2023-02-01T05:08:03;95232.31;;;3.07;66.13
5380;BME280;2713;42.680;23.310;2023-02-01T05:10:30;95225.06;;;2.91;66.83
5380;BME280;2713;42.680;23.310;2023-02-01T05:12:57;95227.16;;;2.97;66.77
5380;BME280;2713;42.680;23.310;2023-02-01T05:15:42;95231.06;;;3.01;66.68
5380;BME280;2713;42.680;23.310;2023-02-01T05:18:11;95233.41;;;3.04;66.23
5380;BME280;2713;42.680;23.310;2023-02-01T05:20:38;95237.75;;;3.14;65.91
5380;BME280;2713;42.680;23.310;2023-02-01T05:23:05;95233.81;;;3.10;65.71
5380;BME280;2713;42.680;23.310;2023-02-01T05:25:32;95226.81;;;3.12;66.91
5380;BME280;2713;42.680;23.310;2023-02-01T05:27:59;95224.91;;;3.14;66.18
5380;BME280;2713;42.680;23.310;2023-02-01T05:30:26;95223.16;;;3.14;66.07
5380;BME280;2713;42.680;23.310;2023-02-01T05:32:54;95233.56;;;3.22;66.38
5380;BME280;2713;42.680;23.310;2023-02-01T05:35:21;95231.78;;;3.13;66.09
5380;BME280;2713;42.680;23.310;2023-02-01T05:37:48;95239.25;;;3.26;65.71
5380;BME280;2713;42.680;23.310;2023-02-01T05:40:15;95228.50;;;3.41;65.37
5380;BME280;2713;42.680;23.310;2023-02-01T05:42:42;95223.09;;;3.44;65.51
5380;BME280;2713;42.680;23.310;2023-02-01T05:45:09;95223.50;;;3.40;65.27
5380;BME280;2713;42.680;23.310;2023-02-01T05:47:36;95227.03;;;3.48;65.04
5380;BME280;2713;42.680;23.310;2023-02-01T05:50:06;95223.00;;;3.55;65.21
5380;BME280;2713;42.680;23.310;2023-02-01T05:52:33;95220.25;;;3.47;65.00
5380;BME280;2713;42.680;23.310;2023-02-01T05:54:59;95222.31;;;3.53;64.64
5380;BME280;2713;42.680;23.310;2023-02-01T05:57:26;95215.94;;;3.38;65.23
5380;BME280;2713;42.680;23.310;2023-02-01T05:59:53;95225.91;;;3.32;65.01
5380;BME280;2713;42.680;23.310;2023-02-01T06:02:20;95227.69;;;3.41;64.41
5380;BME280;2713;42.680;23.310;2023-02-01T06:04:49;95224.75;;;3.55;64.64
5380;BME280;2713;42.680;23.310;2023-02-01T06:07:17;95226.94;;;3.60;63.65
5380;BME280;2713;42.680;23.310;2023-02-01T06:09:44;95233.94;;;3.48;64.14
5380;BME280;2713;42.680;23.310;2023-02-01T06:12:11;95232.72;;;3.52;63.73
5380;BME280;2713;42.680;23.310;2023-02-01T06:14:39;95237.31;;;3.48;64.80
5380;BME280;2713;42.680;23.310;2023-02-01T06:17:06;95233.66;;;3.41;63.91
5380;BME280;2713;42.680;23.310;2023-02-01T06:19:33;95243.13;;;3.50;64.70
5380;BME280;2713;42.680;23.310;2023-02-01T06:22:00;95235.84;;;3.55;64.65
5380;BME280;2713;42.680;23.310;2023-02-01T06:24:28;95234.50;;;3.80;70.39
5380;BME280;2713;42.680;23.310;2023-02-01T06:26:55;95233.44;;;3.73;62.81
5380;BME280;2713;42.680;23.310;2023-02-01T06:29:22;95238.16;;;3.58;63.47
5380;BME280;2713;42.680;23.310;2023-02-01T06:31:49;95238.03;;;3.70;63.37
5380;BME280;2713;42.680;23.310;2023-02-01T06:34:16;95221.75;;;4.55;81.14
5380;BME280;2713;42.680;23.310;2023-02-01T06:36:43;95243.16;;;4.56;63.31
5380;BME280;2713;42.680;23.310;2023-02-01T06:39:10;95256.72;;;4.20;62.38
5380;BME280;2713;42.680;23.310;2023-02-01T06:41:42;95248.06;;;3.92;62.57
5380;BME280;2713;42.680;23.310;2023-02-01T06:44:09;95248.88;;;4.02;62.50
5380;BME280;2713;42.680;23.310;2023-02-01T06:46:36;95251.28;;;3.94;63.09
5380;BME280;2713;42.680;23.310;2023-02-01T06:49:03;95233.84;;;3.78;62.33
5380;BME280;2713;42.680;23.310;2023-02-01T06:51:30;95269.44;;;3.92;62.10
5380;BME280;2713;42.680;23.310;2023-02-01T06:53:57;95262.56;;;3.93;62.62
5380;BME280;2713;42.680;23.310;2023-02-01T06:56:24;95270.91;;;3.76;62.04
5380;BME280;2713;42.680;23.310;2023-02-01T06:58:53;95276.59;;;3.79;62.89
5380;BME280;2713;42.680;23.310;2023-02-01T07:01:20;95277.66;;;3.77;62.21
5380;BME280;2713;42.680;23.310;2023-02-01T07:03:47;95278.63;;;3.85;64.91
5380;BME280;2713;42.680;23.310;2023-02-01T07:06:15;95287.84;;;3.88;62.33
5380;BME280;2713;42.680;23.310;2023-02-01T07:08:42;95292.97;;;3.88;61.83
5380;BME280;2713;42.680;23.310;2023-02-01T07:11:11;95297.44;;;3.86;62.57
5380;BME280;2713;42.680;23.310;2023-02-01T07:13:38;95301.50;;;3.98;62.90
5380;BME280;2713;42.680;23.310;2023-02-01T07:16:10;95298.69;;;4.01;61.75
5380;BME280;2713;42.680;23.310;2023-02-01T07:18:37;95298.44;;;4.14;61.47
5380;BME280;2713;42.680;23.310;2023-02-01T07:21:04;95302.63;;;4.15;62.12
5380;BME280;2713;42.680;23.310;2023-02-01T07:23:31;95301.84;;;4.14;61.83
5380;BME280;2713;42.680;23.310;2023-02-01T07:25:59;95309.00;;;4.20;61.48
5380;BME280;2713;42.680;23.310;2023-02-01T07:28:28;95307.38;;;4.19;61.04
5380;BME280;2713;42.680;23.310;2023-02-01T07:31:01;95306.16;;;4.14;61.34
5380;BME280;2713;42.680;23.310;2023-02-01T07:33:29;95314.41;;;4.27;61.27
5380;BME280;2713;42.680;23.310;2023-02-01T07:35:56;95312.94;;;4.43;61.13
5380;BME280;2713;42.680;23.310;2023-02-01T07:38:23;95311.72;;;4.47;61.14
5380;BME280;2713;42.680;23.310;2023-02-01T07:40:50;95321.47;;;4.53;59.79
5380;BME280;2713;42.680;23.310;2023-02-01T07:43:17;95323.88;;;4.36;60.59
5380;BME280;2713;42.680;23.310;2023-02-01T07:45:50;95320.25;;;4.38;60.32
5380;BME280;2713;42.680;23.310;2023-02-01T07:48:17;95305.50;;;4.21;59.63
5380;BME280;2713;42.680;23.310;2023-02-01T07:50:45;95323.22;;;4.34;60.54
5380;BME280;2713;42.680;23.310;2023-02-01T07:53:12;95321.31;;;4.45;59.83
5380;BME280;2713;42.680;23.310;2023-02-01T07:55:39;95334.59;;;4.50;59.18
5380;BME280;2713;42.680;23.310;2023-02-01T07:58:06;95332.69;;;4.52;59.54
5380;BME280;2713;42.680;23.310;2023-02-01T08:00:33;95337.56;;;4.36;59.80
5380;BME280;2713;42.680;23.310;2023-02-01T08:03:17;95338.53;;;4.64;58.71
5380;BME280;2713;42.680;23.310;2023-02-01T08:05:45;95340.13;;;4.55;58.83
5380;BME280;2713;42.680;23.310;2023-02-01T08:08:12;95341.78;;;4.37;58.47
5380;BME280;2713;42.680;23.310;2023-02-01T08:10:39;95347.75;;;4.47;58.85
5380;BME280;2713;42.680;23.310;2023-02-01T08:13:06;95342.88;;;4.54;59.72
5380;BME280;2713;42.680;23.310;2023-02-01T08:15:33;95340.44;;;4.72;59.19
5380;BME280;2713;42.680;23.310;2023-02-01T08:17:59;95333.66;;;4.51;58.67
5380;BME280;2713;42.680;23.310;2023-02-01T08:20:28;95338.81;;;4.51;58.47
5380;BME280;2713;42.680;23.310;2023-02-01T08:22:56;95328.78;;;4.58;58.60
5380;BME280;2713;42.680;23.310;2023-02-01T08:25:23;95333.13;;;4.57;57.93
5380;BME280;2713;42.680;23.310;2023-02-01T08:27:50;95335.53;;;4.59;58.51
5380;BME280;2713;42.680;23.310;2023-02-01T08:30:19;95343.81;;;4.63;58.49
5380;BME280;2713;42.680;23.310;2023-02-01T08:32:45;95336.09;;;4.72;58.90
5380;BME280;2713;42.680;23.310;2023-02-01T08:35:13;95330.13;;;4.81;58.97
5380;BME280;2713;42.680;23.310;2023-02-01T08:37:40;95340.28;;;4.64;57.30
5380;BME280;2713;42.680;23.310;2023-02-01T08:40:10;95348.56;;;4.67;57.67
5380;BME280;2713;42.680;23.310;2023-02-01T08:42:36;95342.56;;;4.76;57.50
5380;BME280;2713;42.680;23.310;2023-02-01T08:45:20;95329.16;;;4.82;57.20
5380;BME280;2713;42.680;23.310;2023-02-01T08:47:47;95328.06;;;4.85;56.67
5380;BME280;2713;42.680;23.310;2023-02-01T08:50:15;95333.38;;;4.93;56.81
5380;BME280;2713;42.680;23.310;2023-02-01T08:52:41;95317.19;;;5.10;56.13
5380;BME280;2713;42.680;23.310;2023-02-01T08:55:10;95322.06;;;5.03;56.34
5380;BME280;2713;42.680;23.310;2023-02-01T08:57:37;95324.03;;;4.82;56.43
5380;BME280;2713;42.680;23.310;2023-02-01T09:00:06;95327.88;;;5.15;55.87
5380;BME280;2713;42.680;23.310;2023-02-01T09:02:33;95328.97;;;5.13;55.79
5380;BME280;2713;42.680;23.310;2023-02-01T09:05:00;95322.94;;;5.31;55.40
5380;BME280;2713;42.680;23.310;2023-02-01T09:07:27;95325.44;;;5.23;55.19
5380;BME280;2713;42.680;23.310;2023-02-01T09:09:54;95330.56;;;5.23;56.29
5380;BME280;2713;42.680;23.310;2023-02-01T09:12:23;95334.63;;;5.26;56.44
5380;BME280;2713;42.680;23.310;2023-02-01T09:14:50;95344.13;;;5.25;55.63
5380;BME280;2713;42.680;23.310;2023-02-01T09:17:16;95336.34;;;5.44;55.86
5380;BME280;2713;42.680;23.310;2023-02-01T09:19:43;95341.13;;;5.67;55.52
5380;BME280;2713;42.680;23.310;2023-02-01T09:22:10;95333.88;;;5.80;55.38
5380;BME280;2713;42.680;23.310;2023-02-01T09:24:37;95336.06;;;5.75;55.52
5380;BME280;2713;42.680;23.310;2023-02-01T09:27:03;95341.13;;;5.67;55.26
5380;BME280;2713;42.680;23.310;2023-02-01T09:29:32;95339.78;;;5.62;54.95
5380;BME280;2713;42.680;23.310;2023-02-01T09:31:59;95329.81;;;5.50;54.72
5380;BME280;2713;42.680;23.310;2023-02-01T09:34:26;95327.88;;;5.52;55.59
5380;BME280;2713;42.680;23.310;2023-02-01T09:36:53;95320.03;;;5.17;56.05
5380;BME280;2713;42.680;23.310;2023-02-01T09:39:19;95321.50;;;5.19;55.61
5380;BME280;2713;42.680;23.310;2023-02-01T09:41:54;95316.50;;;5.08;55.74
5380;BME280;2713;42.680;23.310;2023-02-01T09:44:51;95305.88;;;5.30;55.94
5380;BME280;2713;42.680;23.310;2023-02-01T09:47:23;95306.94;;;5.28;55.85
5380;BME280;2713;42.680;23.310;2023-02-01T09:49:55;95304.13;;;5.31;55.30
5380;BME280;2713;42.680;23.310;2023-02-01T09:52:27;95292.25;;;5.47;55.65
5380;BME280;2713;42.680;23.310;2023-02-01T09:54:56;95293.00;;;5.57;54.46
5380;BME280;2713;42.680;23.310;2023-02-01T09:57:36;95290.50;;;5.66;54.14
5380;BME280;2713;42.680;23.310;2023-02-01T10:00:15;95286.09;;;5.76;54.10
5380;BME280;2713;42.680;23.310;2023-02-01T10:02:43;95286.88;;;5.86;53.68
5380;BME280;2713;42.680;23.310;2023-02-01T10:05:14;95285.66;;;5.90;52.74
5380;BME280;2713;42.680;23.310;2023-02-01T10:07:49;95287.94;;;5.93;52.79
5380;BME280;2713;42.680;23.310;2023-02-01T10:10:25;95287.09;;;6.02;53.01
5380;BME280;2713;42.680;23.310;2023-02-01T10:13:06;95291.44;;;6.19;52.97
5380;BME280;2713;42.680;23.310;2023-02-01T10:15:45;95276.63;;;6.21;51.93
5380;BME280;2713;42.680;23.310;2023-02-01T10:18:24;95272.94;;;6.06;52.96
5380;BME280;2713;42.680;23.310;2023-02-01T10:20:57;95271.31;;;6.05;52.24
5380;BME280;2713;42.680;23.310;2023-02-01T10:23:41;95237.84;;;5.95;51.98
5380;BME280;2713;42.680;23.310;2023-02-01T10:26:17;95256.66;;;6.23;52.17
5380;BME280;2713;42.680;23.310;2023-02-01T10:28:48;95265.19;;;6.24;52.36
5380;BME280;2713;42.680;23.310;2023-02-01T10:31:17;95262.25;;;6.36;52.80
5380;BME280;2713;42.680;23.310;2023-02-01T11:31:18;95214.19;;;7.21;49.72
5380;BME280;2713;42.680;23.310;2023-02-01T11:33:49;95216.69;;;7.04;50.19
5380;BME280;2713;42.680;23.310;2023-02-01T11:36:18;95216.94;;;6.93;50.46
5380;BME280;2713;42.680;23.310;2023-02-01T11:38:52;95204.09;;;6.76;50.66
5380;BME280;2713;42.680;23.310;2023-02-01T11:41:22;95195.88;;;6.54;50.99
5380;BME280;2713;42.680;23.310;2023-02-01T11:43:53;95218.16;;;6.55;51.11
5380;BME280;2713;42.680;23.310;2023-02-01T11:46:30;95205.53;;;6.70;51.18
5380;BME280;2713;42.680;23.310;2023-02-01T11:49:18;95199.75;;;6.76;50.08
5380;BME280;2713;42.680;23.310;2023-02-01T11:51:54;95195.28;;;6.86;49.93
5380;BME280;2713;42.680;23.310;2023-02-01T11:54:38;95194.75;;;7.08;50.13
5380;BME280;2713;42.680;23.310;2023-02-01T11:57:23;95198.22;;;7.33;49.56
5380;BME280;2713;42.680;23.310;2023-02-01T12:00:05;95187.13;;;7.41;48.64
5380;BME280;2713;42.680;23.310;2023-02-01T12:02:55;95183.72;;;7.32;49.55
5380;BME280;2713;42.680;23.310;2023-02-01T12:05:30;95184.03;;;7.29;48.54
5380;BME280;2713;42.680;23.310;2023-02-01T12:08:19;95187.00;;;7.08;48.81
5380;BME280;2713;42.680;23.310;2023-02-01T12:10:59;95177.56;;;6.99;49.75
5380;BME280;2713;42.680;23.310;2023-02-01T12:13:40;95190.41;;;7.17;49.33
5380;BME280;2713;42.680;23.310;2023-02-01T12:16:22;95157.31;;;7.21;49.43
5380;BME280;2713;42.680;23.310;2023-02-01T12:19:23;95171.81;;;7.13;49.89
5380;BME280;2713;42.680;23.310;2023-02-01T12:21:58;95174.63;;;7.28;49.73
5380;BME280;2713;42.680;23.310;2023-02-01T12:24:43;95185.38;;;7.57;48.75
5380;BME280;2713;42.680;23.310;2023-02-01T12:30:28;95180.28;;;8.06;48.43
5380;BME280;2713;42.680;23.310;2023-02-01T12:33:06;95178.19;;;8.09;47.14
5380;BME280;2713;42.680;23.310;2023-02-01T12:36:10;95164.59;;;8.15;48.05
5380;BME280;2713;42.680;23.310;2023-02-01T12:38:49;95168.97;;;7.99;47.96
5380;BME280;2713;42.680;23.310;2023-02-01T12:41:42;95180.63;;;8.03;47.80
5380;BME280;2713;42.680;23.310;2023-02-01T12:44:17;95181.56;;;7.86;48.20
5380;BME280;2713;42.680;23.310;2023-02-01T12:46:52;95166.69;;;7.88;48.30
5380;BME280;2713;42.680;23.310;2023-02-01T12:49:22;95168.03;;;8.08;47.56
5380;BME280;2713;42.680;23.310;2023-02-01T12:52:00;95171.91;;;8.20;47.58
5380;BME280;2713;42.680;23.310;2023-02-01T12:54:34;95162.16;;;7.90;46.55
5380;BME280;2713;42.680;23.310;2023-02-01T12:57:05;95172.69;;;7.96;47.11
5380;BME280;2713;42.680;23.310;2023-02-01T12:59:38;95157.81;;;8.14;46.77
5380;BME280;2713;42.680;23.310;2023-02-01T13:02:13;95161.88;;;8.01;46.12
5380;BME280;2713;42.680;23.310;2023-02-01T13:04:50;95164.28;;;7.94;47.25
5380;BME280;2713;42.680;23.310;2023-02-01T13:07:25;95160.72;;;8.03;46.74
5380;BME280;2713;42.680;23.310;2023-02-01T13:09:57;95158.28;;;7.86;47.16
5380;BME280;2713;42.680;23.310;2023-02-01T13:12:31;95169.44;;;7.86;47.24
5380;BME280;2713;42.680;23.310;2023-02-01T13:15:02;95177.31;;;7.60;46.38
5380;BME280;2713;42.680;23.310;2023-02-01T13:17:32;95168.56;;;7.53;46.05
5380;BME280;2713;42.680;23.310;2023-02-01T13:20:04;95170.19;;;7.54;46.60
5380;BME280;2713;42.680;23.310;2023-02-01T13:22:36;95176.03;;;7.64;46.77
5380;BME280;2713;42.680;23.310;2023-02-01T13:25:13;95178.13;;;7.61;47.22
5380;BME280;2713;42.680;23.310;2023-02-01T13:27:41;95161.78;;;7.60;46.35
5380;BME280;2713;42.680;23.310;2023-02-01T13:30:15;95184.09;;;7.61;46.83
5380;BME280;2713;42.680;23.310;2023-02-01T13:33:07;95174.25;;;7.65;46.65
5380;BME280;2713;42.680;23.310;2023-02-01T13:36:01;95177.47;;;7.59;46.86
5380;BME280;2713;42.680;23.310;2023-02-01T13:38:53;95178.63;;;7.56;46.39
5380;BME280;2713;42.680;23.310;2023-02-01T13:41:27;95174.22;;;7.57;46.76
5380;BME280;2713;42.680;23.310;2023-02-01T13:43:58;95171.50;;;7.58;46.41
5380;BME280;2713;42.680;23.310;2023-02-01T13:46:26;95166.34;;;7.67;47.14
5380;BME280;2713;42.680;23.310;2023-02-01T13:48:55;95169.75;;;7.75;46.74
5380;BME280;2713;42.680;23.310;2023-02-01T13:51:37;95165.03;;;7.71;46.41
5380;BME280;2713;42.680;23.310;2023-02-01T13:54:24;95166.97;;;7.69;46.53
5380;BME280;2713;42.680;23.310;2023-02-01T13:56:52;95164.59;;;7.83;46.00
5380;BME280;2713;42.680;23.310;2023-02-01T14:05:54;95171.69;;;7.81;46.50
5380;BME280;2713;42.680;23.310;2023-02-01T14:08:25;95167.19;;;7.83;46.91
5380;BME280;2713;42.680;23.310;2023-02-01T14:11:03;95171.84;;;7.72;47.21
5380;BME280;2713;42.680;23.310;2023-02-01T14:13:32;95169.50;;;7.44;47.14
5380;BME280;2713;42.680;23.310;2023-02-01T14:16:14;95159.94;;;7.37;47.10
5380;BME280;2713;42.680;23.310;2023-02-01T14:18:59;95166.78;;;7.46;47.41
5380;BME280;2713;42.680;23.310;2023-02-01T14:21:29;95154.28;;;7.33;47.44
5380;BME280;2713;42.680;23.310;2023-02-01T14:23:59;95161.53;;;7.30;48.14
5380;BME280;2713;42.680;23.310;2023-02-01T14:26:43;95165.59;;;7.32;47.20
5380;BME280;2713;42.680;23.310;2023-02-01T14:29:22;95163.84;;;7.33;47.57
5380;BME280;2713;42.680;23.310;2023-02-01T14:31:54;95166.59;;;7.39;48.30
5380;BME280;2713;42.680;23.310;2023-02-01T14:34:35;95160.16;;;7.51;48.08
5380;BME280;2713;42.680;23.310;2023-02-01T14:37:10;95149.81;;;7.51;47.53
5380;BME280;2713;42.680;23.310;2023-02-01T14:39:50;95148.16;;;7.34;48.37
5380;BME280;2713;42.680;23.310;2023-02-01T14:42:25;95149.00;;;7.43;47.88
5380;BME280;2713;42.680;23.310;2023-02-01T14:44:54;95154.00;;;7.36;48.82
5380;BME280;2713;42.680;23.310;2023-02-01T14:47:32;95165.31;;;7.51;48.27
5380;BME280;2713;42.680;23.310;2023-02-01T14:50:27;95165.97;;;7.45;47.81
5380;BME280;2713;42.680;23.310;2023-02-01T14:53:15;95168.06;;;7.42;48.35
5380;BME280;2713;42.680;23.310;2023-02-01T14:55:45;95171.56;;;7.25;48.48
5380;BME280;2713;42.680;23.310;2023-02-01T14:58:19;95176.69;;;7.17;48.65